createdAt,value
2019-01-10T07:55:28.316Z,4
2019-01-10T07:56:29.708Z,4
2019-01-10T07:57:31.725Z,4
2019-01-10T07:58:33.085Z,4
2019-01-10T07:59:34.450Z,4
2019-01-10T08:00:35.823Z,4
2019-01-10T08:01:37.186Z,4
2019-01-10T08:02:38.569Z,4
2019-01-10T08:03:39.936Z,4
2019-01-10T08:04:41.288Z,4
2019-01-10T08:05:42.661Z,4
2019-01-10T08:06:44.026Z,8
2019-01-10T08:07:45.400Z,8
2019-01-10T08:08:46.767Z,4
2019-01-10T08:09:48.155Z,8
2019-01-10T08:10:49.618Z,8
2019-01-10T08:12:00.016Z,8
2019-01-10T08:12:52.314Z,8
2019-01-10T08:13:53.691Z,8
2019-01-10T08:14:55.084Z,8
2019-01-10T08:15:56.438Z,8
2019-01-10T08:16:57.826Z,8
2019-01-10T08:17:59.192Z,8
2019-01-10T08:19:00.555Z,8
2019-01-10T08:20:02.232Z,8
2019-01-10T08:21:03.575Z,8
2019-01-10T08:22:04.962Z,8
2019-01-10T08:23:06.314Z,8
2019-01-10T08:24:07.700Z,8
2019-01-10T08:25:09.062Z,8
2019-01-10T08:26:10.429Z,8
2019-01-10T08:27:11.797Z,8
2019-01-10T08:28:13.170Z,8
2019-01-10T08:29:15.459Z,8
2019-01-10T08:30:16.825Z,8
2019-01-10T08:31:18.202Z,8
2019-01-10T08:32:19.746Z,8
2019-01-10T08:33:21.117Z,8
2019-01-10T08:34:22.482Z,8
2019-01-10T08:35:23.854Z,8
2019-01-10T08:36:32.321Z,8
2019-01-10T08:37:26.793Z,8
2019-01-10T08:38:28.165Z,8
2019-01-10T08:39:29.530Z,8
2019-01-10T08:40:30.893Z,8
2019-01-10T08:41:32.260Z,8
2019-01-10T08:42:33.929Z,8
2019-01-10T08:43:35.201Z,8
2019-01-10T08:44:36.584Z,8
2019-01-10T08:45:38.086Z,8
2019-01-10T08:46:39.499Z,8
2019-01-10T08:47:40.871Z,8
2019-01-10T08:48:42.511Z,8
2019-01-10T08:49:43.573Z,8
2019-01-10T08:50:45.167Z,8
2019-01-10T08:51:46.764Z,12
2019-01-10T08:52:48.134Z,12
2019-01-10T08:53:53.815Z,8
2019-01-10T08:54:51.786Z,8
2019-01-10T08:55:52.167Z,8
2019-01-10T08:56:53.572Z,8
2019-01-10T08:57:54.944Z,8
2019-01-10T08:58:56.345Z,12
2019-01-10T08:59:57.716Z,12
2019-01-10T09:00:59.296Z,8
2019-01-10T09:02:03.118Z,8
2019-01-10T09:03:04.614Z,12
2019-01-10T09:04:06.088Z,12
2019-01-10T09:05:07.608Z,12
2019-01-10T09:06:08.911Z,12
2019-01-10T09:07:10.565Z,12
2019-01-10T09:08:12.509Z,12
2019-01-10T09:09:14.032Z,12
2019-01-10T09:10:15.462Z,12
2019-01-10T09:11:16.856Z,12
2019-01-10T09:12:18.483Z,8
2019-01-10T09:13:19.858Z,8
2019-01-10T09:14:21.257Z,8
2019-01-10T09:15:25.347Z,8
2019-01-10T09:16:24.571Z,12
2019-01-10T09:17:25.961Z,12
2019-01-10T09:18:27.338Z,8
2019-01-10T09:19:28.706Z,8
2019-01-10T09:20:30.075Z,8
2019-01-10T09:21:31.445Z,12
2019-01-10T09:22:32.830Z,12
2019-01-10T09:23:34.249Z,12
2019-01-10T09:24:35.704Z,12
2019-01-10T09:25:37.031Z,12
2019-01-10T09:26:38.346Z,16
2019-01-10T09:27:39.720Z,12
2019-01-10T09:28:42.013Z,12
2019-01-10T09:29:43.380Z,16
2019-01-10T09:30:45.094Z,16
2019-01-10T09:31:46.389Z,16
2019-01-10T09:32:47.898Z,16
2019-01-10T09:33:49.420Z,16
2019-01-10T09:34:50.816Z,12
2019-01-10T09:35:52.233Z,16
2019-01-10T09:36:53.645Z,16
2019-01-10T09:37:55.010Z,16
2019-01-10T09:38:56.399Z,16
2019-01-10T09:39:57.775Z,16
2019-01-10T09:40:59.395Z,20
2019-01-10T09:42:00.771Z,20
2019-01-10T09:43:02.155Z,20
2019-01-10T09:44:03.515Z,20
2019-01-10T09:45:05.089Z,20
2019-01-10T09:46:06.506Z,20
2019-01-10T09:47:08.115Z,20
2019-01-10T09:48:09.543Z,16
2019-01-10T09:49:10.958Z,16
2019-01-10T09:50:12.487Z,16
2019-01-10T09:51:13.962Z,16
2019-01-10T09:52:15.206Z,16
2019-01-10T09:53:16.700Z,16
2019-01-10T09:54:18.076Z,20
2019-01-10T09:55:19.484Z,20
2019-01-10T09:56:20.868Z,20
2019-01-10T09:57:22.432Z,20
2019-01-10T09:58:23.799Z,20
2019-01-10T09:59:25.340Z,20
2019-01-10T10:00:26.678Z,20
2019-01-10T10:01:29.023Z,20
2019-01-10T10:02:30.418Z,24
2019-01-10T10:03:31.796Z,24
2019-01-10T10:04:33.174Z,24
2019-01-10T10:05:34.544Z,24
2019-01-10T10:06:35.906Z,24
2019-01-10T10:07:37.275Z,24
2019-01-10T10:08:39.006Z,24
2019-01-10T10:09:40.396Z,24
2019-01-10T10:10:41.783Z,24
2019-01-10T10:11:43.163Z,20
2019-01-10T10:12:44.545Z,20
2019-01-10T10:13:45.940Z,24
2019-01-10T10:14:47.319Z,20
2019-01-10T10:15:52.670Z,20
2019-01-10T10:16:50.259Z,20
2019-01-10T10:17:51.640Z,20
2019-01-10T10:18:53.104Z,20
2019-01-10T10:19:54.505Z,20
2019-01-10T10:20:55.896Z,20
2019-01-10T10:21:58.159Z,20
2019-01-10T10:22:59.534Z,20
2019-01-10T10:24:00.919Z,20
2019-01-10T10:25:02.302Z,20
2019-01-10T10:26:03.671Z,16
2019-01-10T10:27:05.037Z,16
2019-01-10T10:28:06.412Z,16
2019-01-10T10:29:07.781Z,16
2019-01-10T10:30:09.161Z,16
2019-01-10T10:31:10.499Z,16
2019-01-10T10:32:11.886Z,16
2019-01-10T10:33:13.266Z,16
2019-01-10T10:34:14.665Z,12
2019-01-10T10:35:16.616Z,12
2019-01-10T10:36:17.993Z,12
2019-01-10T10:37:19.389Z,12
2019-01-10T10:38:20.765Z,12
2019-01-10T10:39:22.153Z,16
2019-01-10T10:40:23.520Z,16
2019-01-10T10:41:25.451Z,16
2019-01-10T10:42:26.870Z,16
2019-01-10T10:43:28.259Z,16
2019-01-10T10:44:29.627Z,16
2019-01-10T10:45:31.037Z,16
2019-01-10T10:46:32.404Z,20
2019-01-10T10:47:33.777Z,16
2019-01-10T10:48:35.142Z,16
2019-01-10T10:49:36.525Z,16
2019-01-10T10:50:37.897Z,16
2019-01-10T10:51:39.267Z,16
2019-01-10T10:52:40.641Z,16
2019-01-10T10:53:42.020Z,16
2019-01-10T10:54:43.418Z,12
2019-01-10T10:55:44.798Z,16
2019-01-10T10:56:46.210Z,16
2019-01-10T10:57:47.553Z,16
2019-01-10T10:58:49.047Z,16
2019-01-10T10:59:50.270Z,16
2019-01-10T11:00:51.649Z,16
2019-01-10T11:01:53.028Z,16
2019-01-10T11:02:54.416Z,16
2019-01-10T11:03:55.779Z,16
2019-01-10T11:04:57.143Z,16
2019-01-10T11:05:58.583Z,16
2019-01-10T11:07:00.021Z,16
2019-01-10T11:08:01.384Z,16
2019-01-10T11:09:09.056Z,16
2019-01-10T11:10:04.097Z,16
2019-01-10T11:11:05.467Z,16
2019-01-10T11:12:06.854Z,16
2019-01-10T11:13:08.253Z,20
2019-01-10T11:14:10.384Z,20
2019-01-10T11:15:11.785Z,20
2019-01-10T11:16:13.171Z,16
2019-01-10T11:17:14.595Z,16
2019-01-10T11:18:15.990Z,16
2019-01-10T11:19:17.371Z,16
2019-01-10T11:20:18.772Z,20
2019-01-10T11:21:20.661Z,20
2019-01-10T11:22:21.480Z,20
2019-01-10T11:23:22.854Z,20
2019-01-10T11:24:24.225Z,16
2019-01-10T11:25:25.852Z,16
2019-01-10T11:26:27.247Z,20
2019-01-10T11:27:28.671Z,20
2019-01-10T11:28:30.045Z,20
2019-01-10T11:29:31.423Z,20
2019-01-10T11:30:32.821Z,20
2019-01-10T11:31:34.198Z,20
2019-01-10T11:32:35.566Z,24
2019-01-10T11:33:36.966Z,24
2019-01-10T11:34:38.341Z,24
2019-01-10T11:35:39.716Z,24
2019-01-10T11:36:41.096Z,28
2019-01-10T11:37:42.470Z,28
2019-01-10T11:38:45.203Z,28
2019-01-10T11:39:45.203Z,32
2019-01-10T11:40:46.570Z,28
2019-01-10T11:41:47.940Z,28
2019-01-10T11:42:49.314Z,28
2019-01-10T11:43:50.692Z,24
2019-01-10T11:44:52.061Z,24
2019-01-10T11:45:54.041Z,24
2019-01-10T11:46:56.158Z,24
2019-01-10T11:47:57.550Z,24
2019-01-10T11:48:58.929Z,24
2019-01-10T11:50:00.302Z,24
2019-01-10T11:51:01.682Z,28
2019-01-10T11:52:03.815Z,24
2019-01-10T11:53:05.184Z,24
2019-01-10T11:54:06.565Z,24
2019-01-10T11:55:07.928Z,24
2019-01-10T11:56:09.364Z,24
2019-01-10T11:57:10.749Z,24
2019-01-10T11:58:12.612Z,28
2019-01-10T11:59:13.426Z,24
2019-01-10T12:00:14.858Z,28
2019-01-10T12:01:17.009Z,28
2019-01-10T12:02:18.374Z,28
2019-01-10T12:03:19.749Z,28
2019-01-10T12:04:21.129Z,32
2019-01-10T12:05:22.499Z,32
2019-01-10T12:06:23.875Z,36
2019-01-10T12:07:25.250Z,36
2019-01-10T12:08:26.646Z,36
2019-01-10T12:09:28.011Z,40
2019-01-10T12:10:29.420Z,36
2019-01-10T12:11:30.842Z,40
2019-01-10T12:12:32.178Z,36
2019-01-10T12:13:33.556Z,36
2019-01-10T12:14:34.975Z,36
2019-01-10T12:15:36.370Z,32
2019-01-10T12:16:37.756Z,32
2019-01-10T12:17:39.155Z,32
2019-01-10T12:18:40.521Z,32
2019-01-10T12:19:41.887Z,32
2019-01-10T12:20:45.019Z,28
2019-01-10T12:21:46.389Z,28
2019-01-10T12:22:47.784Z,28
2019-01-10T12:23:49.152Z,24
2019-01-10T12:24:50.522Z,24
2019-01-10T12:25:51.891Z,20
2019-01-10T12:26:53.274Z,20
2019-01-10T12:27:54.698Z,20
2019-01-10T12:28:56.095Z,20
2019-01-10T12:29:57.462Z,20
2019-01-10T12:30:58.838Z,16
2019-01-10T12:32:00.226Z,16
2019-01-10T12:33:01.600Z,16
2019-01-10T12:34:02.992Z,16
2019-01-10T12:35:04.378Z,16
2019-01-10T12:36:05.758Z,16
2019-01-10T12:37:09.769Z,20
2019-01-10T12:38:10.315Z,20
2019-01-10T12:39:11.688Z,20
2019-01-10T12:40:13.070Z,16
2019-01-10T12:41:15.115Z,20
2019-01-10T12:42:17.895Z,20
2019-01-10T12:43:20.691Z,20
2019-01-10T12:44:23.468Z,20
2019-01-10T12:45:24.840Z,24
2019-01-10T12:46:26.991Z,20
2019-01-10T12:47:29.296Z,20
2019-01-10T12:48:31.201Z,20
2019-01-10T12:49:34.113Z,20
2019-01-10T12:50:36.161Z,24
2019-01-10T12:51:38.969Z,24
2019-01-10T12:52:40.342Z,24
2019-01-10T12:53:43.135Z,24
2019-01-10T12:54:44.501Z,24
2019-01-10T12:55:45.871Z,24
2019-01-10T12:56:47.239Z,24
2019-01-10T12:57:48.644Z,20
2019-01-10T12:58:50.016Z,20
2019-01-10T12:59:51.397Z,24
2019-01-10T13:00:52.784Z,24
2019-01-10T13:01:54.172Z,24
2019-01-10T13:02:55.554Z,24
2019-01-10T13:03:56.942Z,24
2019-01-10T13:04:58.372Z,24
2019-01-10T13:05:59.756Z,24
2019-01-10T13:07:01.167Z,24
2019-01-10T13:08:03.731Z,24
2019-01-10T13:09:03.885Z,24
2019-01-10T13:10:05.692Z,24
2019-01-10T13:11:06.585Z,20
2019-01-10T13:12:07.957Z,20
2019-01-10T13:13:10.267Z,20
2019-01-10T13:14:11.678Z,20
2019-01-10T13:15:13.043Z,20
2019-01-10T13:16:14.426Z,20
2019-01-10T13:17:15.814Z,16
2019-01-10T13:18:17.208Z,20
2019-01-10T13:19:18.574Z,16
2019-01-10T13:20:19.950Z,16
2019-01-10T13:21:21.347Z,16
2019-01-10T13:22:22.715Z,16
2019-01-10T13:23:24.088Z,12
2019-01-10T13:24:25.463Z,12
2019-01-10T13:25:26.852Z,16
2019-01-10T13:26:28.222Z,16
2019-01-10T13:27:29.588Z,12
2019-01-10T13:28:30.971Z,12
2019-01-10T13:29:32.342Z,12
2019-01-10T13:30:33.706Z,12
2019-01-10T13:31:35.092Z,16
2019-01-10T13:32:36.463Z,12
2019-01-10T13:33:37.895Z,12
2019-01-10T13:34:39.268Z,12
2019-01-10T13:35:40.644Z,12
2019-01-10T13:36:42.017Z,12
2019-01-10T13:37:43.394Z,8
2019-01-10T13:38:44.813Z,12
2019-01-10T13:39:46.198Z,12
2019-01-10T13:40:47.569Z,12
2019-01-10T13:41:48.944Z,8
2019-01-10T13:42:50.324Z,8
2019-01-10T13:43:51.710Z,12
2019-01-10T13:44:53.074Z,8
2019-01-10T13:45:55.446Z,8
2019-01-10T13:46:56.046Z,8
2019-01-10T13:47:57.136Z,8
2019-01-10T13:48:58.499Z,8
2019-01-10T13:49:59.870Z,4
2019-01-10T13:51:01.245Z,4
2019-01-10T13:52:02.628Z,8
2019-01-10T13:53:03.987Z,8
2019-01-10T13:54:05.358Z,8
2019-01-10T13:55:06.736Z,8
2019-01-10T13:56:08.103Z,4
2019-01-10T13:57:09.475Z,8
2019-01-10T13:58:10.847Z,8
2019-01-10T14:00:13.620Z,8
2019-01-10T14:01:14.980Z,8
2019-01-10T14:02:16.396Z,8
2019-01-10T14:03:17.788Z,8
2019-01-10T14:04:19.156Z,8
2019-01-10T14:05:20.536Z,8
2019-01-10T14:06:21.922Z,8
2019-01-10T14:07:23.319Z,8
2019-01-10T14:08:24.707Z,8
2019-01-10T14:09:26.083Z,8
2019-01-10T14:10:28.366Z,8
2019-01-10T14:11:29.746Z,8
2019-01-10T14:12:31.127Z,8
2019-01-10T14:13:32.497Z,8
2019-01-10T14:14:33.864Z,8
2019-01-10T14:15:35.240Z,8
2019-01-10T14:16:36.609Z,8
2019-01-10T14:17:38.004Z,8
2019-01-10T14:18:39.363Z,8
2019-01-10T14:19:40.762Z,8
2019-01-10T14:20:42.108Z,4
2019-01-10T14:21:46.635Z,4
2019-01-10T14:22:44.837Z,4
2019-01-10T14:23:46.204Z,4
2019-01-10T14:24:47.579Z,4
2019-01-10T14:25:48.945Z,8
2019-01-10T14:26:50.316Z,8
2019-01-10T14:27:59.146Z,8
2019-01-10T14:28:53.049Z,8
2019-01-10T14:29:54.428Z,8
2019-01-10T14:30:55.818Z,8
2019-01-10T14:31:57.224Z,8
2019-01-10T14:32:58.589Z,8
2019-01-10T14:34:00.011Z,8
2019-01-10T14:35:03.174Z,8
2019-01-10T14:36:04.697Z,4
2019-01-10T14:37:06.066Z,4
2019-01-10T14:38:07.459Z,4
2019-01-10T14:39:08.825Z,4
2019-01-10T14:40:10.199Z,4
2019-01-10T14:41:11.568Z,4
2019-01-10T14:42:12.931Z,4
2019-01-10T14:43:14.311Z,4
2019-01-10T14:44:16.437Z,4
2019-01-10T14:45:17.810Z,4
2019-01-10T14:46:19.997Z,4
2019-01-10T14:47:20.606Z,4
2019-01-10T14:48:21.991Z,4
2019-01-10T14:49:23.407Z,8
2019-01-10T14:50:24.808Z,4
2019-01-10T14:51:26.185Z,4
2019-01-10T14:52:27.562Z,4
2019-01-10T14:53:29.167Z,4
2019-01-10T14:54:30.553Z,4
2019-01-10T14:55:31.934Z,4
2019-01-10T14:56:33.559Z,4
2019-01-10T14:57:34.875Z,4
2019-01-10T14:58:36.266Z,4
2019-01-10T14:59:37.643Z,0
2019-01-10T15:00:39.008Z,0
2019-01-10T15:01:40.376Z,0
2019-01-10T15:02:42.731Z,0
2019-01-10T15:03:44.094Z,4
2019-01-10T15:04:45.730Z,4
2019-01-10T15:05:47.098Z,4
2019-01-10T15:06:48.531Z,4
2019-01-10T15:07:50.098Z,4
2019-01-10T15:08:51.480Z,4
2019-01-10T15:09:52.858Z,4
2019-01-10T15:10:54.864Z,4
2019-01-10T15:11:56.260Z,4
2019-01-10T15:12:57.632Z,4
2019-01-10T15:13:59.115Z,4
2019-01-10T15:15:00.470Z,0
2019-01-10T15:16:01.898Z,0
2019-01-10T15:17:03.278Z,0
2019-01-10T15:18:04.647Z,0
2019-01-10T15:19:07.571Z,0
2019-01-10T15:20:08.951Z,0
2019-01-10T15:21:10.335Z,0
2019-01-10T15:22:11.701Z,0
2019-01-10T15:23:13.113Z,0
2019-01-10T15:24:14.487Z,0
2019-01-10T15:25:15.866Z,0
2019-01-10T15:26:17.231Z,0
2019-01-10T15:27:18.601Z,0
2019-01-10T15:28:19.994Z,0
2019-01-10T15:29:21.708Z,0
2019-01-10T15:30:22.739Z,0
2019-01-10T15:31:24.172Z,0
2019-01-10T15:32:25.544Z,0
2019-01-10T15:33:26.979Z,0
2019-01-10T15:34:28.337Z,0
2019-01-10T15:35:29.724Z,0
2019-01-10T15:36:31.102Z,0
2019-01-10T15:37:32.494Z,0
2019-01-10T15:38:33.860Z,0
2019-01-10T15:39:35.303Z,0
2019-01-10T15:40:36.674Z,0
2019-01-10T15:41:38.105Z,0
2019-01-10T15:42:39.493Z,0
2019-01-10T15:43:41.778Z,0
2019-01-10T15:44:44.143Z,0
2019-01-10T15:45:45.532Z,0
2019-01-10T15:46:46.897Z,0
2019-01-10T15:47:48.269Z,0
2019-01-10T15:48:49.671Z,0
2019-01-10T15:49:51.034Z,0
2019-01-10T15:50:53.234Z,0
2019-01-10T15:51:54.611Z,0
2019-01-10T15:52:56.009Z,0
2019-01-10T15:53:58.107Z,0
2019-01-10T15:54:59.507Z,0
2019-01-10T15:56:00.879Z,0
2019-01-10T15:57:02.257Z,0
2019-01-10T15:58:03.647Z,0
2019-01-10T15:59:05.042Z,0
2019-01-10T16:00:06.428Z,0
2019-01-10T16:01:08.677Z,0
2019-01-10T16:02:11.855Z,0
2019-01-10T16:03:13.238Z,0
2019-01-10T16:04:14.622Z,0
2019-01-10T16:05:17.189Z,0
2019-01-10T16:06:19.299Z,0
2019-01-10T16:07:20.674Z,0
2019-01-10T16:08:22.066Z,0
2019-01-10T16:09:23.469Z,0
2019-01-10T16:10:24.841Z,0
2019-01-10T16:11:26.213Z,0
2019-01-10T16:12:27.621Z,0
2019-01-10T16:13:29.771Z,0
2019-01-10T16:14:31.161Z,0
2019-01-10T16:15:32.536Z,0
2019-01-10T16:16:35.590Z,0
2019-01-10T16:17:36.971Z,0
2019-01-10T16:18:40.213Z,0
2019-01-10T16:19:41.582Z,0
2019-01-10T16:20:42.959Z,0
2019-01-10T16:21:45.100Z,0
2019-01-10T16:22:46.472Z,0
2019-01-10T16:23:48.418Z,0
2019-01-10T16:24:49.798Z,0
2019-01-10T16:25:51.178Z,0
2019-01-10T16:26:52.561Z,0
2019-01-10T16:27:54.760Z,0
2019-01-10T16:28:56.149Z,0
2019-01-10T16:29:57.509Z,0
2019-01-10T16:30:59.646Z,0
2019-01-10T16:32:00.237Z,0
2019-01-10T16:33:01.607Z,0
2019-01-10T16:34:02.982Z,0
2019-01-10T16:35:04.346Z,0
2019-01-10T16:36:05.743Z,0
2019-01-10T16:37:07.113Z,0
2019-01-10T16:38:08.492Z,0
2019-01-10T16:39:09.871Z,0
2019-01-10T16:40:11.247Z,0
2019-01-10T16:41:12.614Z,0
2019-01-10T16:42:13.989Z,0
2019-01-10T16:43:15.398Z,0
2019-01-10T16:44:18.215Z,0
2019-01-10T16:45:19.594Z,0
2019-01-10T16:46:21.000Z,0
2019-01-10T16:47:22.374Z,0
2019-01-10T16:48:23.754Z,0
2019-01-10T16:49:25.129Z,0
2019-01-10T16:50:26.554Z,0
2019-01-10T16:51:27.884Z,0
2019-01-10T16:52:30.657Z,0
2019-01-10T16:53:32.060Z,0
2019-01-10T16:54:33.425Z,0
2019-01-10T16:55:34.931Z,0
2019-01-10T16:56:36.279Z,0
2019-01-10T16:57:37.886Z,0
2019-01-10T16:58:40.160Z,0
2019-01-10T16:59:40.602Z,0
2019-01-10T17:00:41.964Z,0
2019-01-10T17:01:43.355Z,0
2019-01-10T17:02:44.760Z,0
2019-01-10T17:03:46.125Z,0
2019-01-10T17:04:48.171Z,0
2019-01-10T17:05:49.560Z,0
2019-01-10T17:06:51.027Z,0
2019-01-10T17:07:52.425Z,0
2019-01-10T17:08:53.813Z,0
2019-01-10T17:09:55.188Z,0
2019-01-10T17:10:56.693Z,0
2019-01-10T17:11:58.190Z,0
2019-01-10T17:13:00.855Z,0
2019-01-10T17:14:02.232Z,0
2019-01-10T17:15:03.613Z,0
2019-01-10T17:16:05.004Z,0
2019-01-10T17:17:06.382Z,0
2019-01-10T17:18:08.396Z,0
2019-01-10T17:19:10.690Z,0
2019-01-10T17:20:14.047Z,0
2019-01-10T17:21:15.617Z,0
2019-01-10T17:22:18.385Z,0
2019-01-10T17:23:21.216Z,0
2019-01-10T17:24:21.960Z,0
2019-01-10T17:25:23.312Z,0
2019-01-10T17:26:24.689Z,0
2019-01-10T17:27:26.677Z,0
2019-01-10T17:28:32.175Z,0
2019-01-10T17:29:40.658Z,0
2019-01-10T17:30:41.537Z,0
2019-01-10T17:31:42.914Z,0
2019-01-10T17:32:44.291Z,0
2019-01-10T17:33:45.665Z,0
2019-01-10T17:34:47.041Z,0
2019-01-10T17:35:48.485Z,0
2019-01-10T17:36:49.928Z,0
2019-01-10T17:37:51.274Z,0
2019-01-10T17:38:52.646Z,0
2019-01-10T17:39:54.060Z,0
2019-01-10T17:40:55.435Z,0
2019-01-10T17:41:56.799Z,0
2019-01-10T17:42:58.184Z,0
2019-01-10T17:43:59.583Z,0
2019-01-10T17:45:00.953Z,0
2019-01-10T17:46:02.335Z,0
2019-01-10T17:47:03.707Z,0
2019-01-10T17:48:05.079Z,0
2019-01-10T17:49:06.469Z,0
2019-01-10T17:50:07.841Z,0
2019-01-10T17:51:09.273Z,0
2019-01-10T17:52:10.676Z,0
2019-01-10T17:53:12.080Z,0
2019-01-10T17:54:14.654Z,0
2019-01-10T17:55:16.021Z,0
2019-01-10T17:56:18.875Z,0
2019-01-10T17:57:20.392Z,0
2019-01-10T17:58:21.770Z,0
2019-01-10T17:59:23.352Z,0
2019-01-10T18:00:24.735Z,0
2019-01-10T18:01:26.181Z,0
2019-01-10T18:02:31.349Z,0
2019-01-10T18:03:39.867Z,0
2019-01-10T18:04:35.768Z,0
2019-01-10T18:05:39.966Z,0
2019-01-10T18:06:40.832Z,0
2019-01-10T18:07:42.192Z,0
2019-01-10T18:08:43.600Z,0
2019-01-10T18:09:45.192Z,0
2019-01-10T18:10:46.605Z,0
2019-01-10T18:11:48.011Z,0
2019-01-10T18:12:49.388Z,0
2019-01-10T18:13:51.748Z,0
2019-01-10T18:14:53.117Z,0
2019-01-10T18:15:54.487Z,0
2019-01-10T18:16:55.857Z,0
2019-01-10T18:17:57.238Z,0
2019-01-10T18:18:59.419Z,0
2019-01-10T18:20:00.796Z,0
2019-01-10T18:21:02.162Z,0
2019-01-10T18:22:04.517Z,0
2019-01-10T18:23:06.478Z,0
2019-01-10T18:24:08.423Z,0
2019-01-10T18:25:10.501Z,0
2019-01-10T18:26:13.969Z,0
2019-01-10T18:27:15.403Z,0
2019-01-10T18:28:18.419Z,0
2019-01-10T18:29:19.807Z,0
2019-01-10T18:30:21.193Z,0
2019-01-10T18:31:23.328Z,0
2019-01-10T18:32:23.917Z,0
2019-01-10T18:33:25.291Z,0
2019-01-10T18:34:28.332Z,0
2019-01-10T18:35:29.713Z,0
2019-01-10T18:36:31.074Z,0
2019-01-10T18:37:32.482Z,0
2019-01-10T18:38:33.874Z,0
2019-01-10T18:39:35.239Z,0
2019-01-10T18:40:36.897Z,0
2019-01-10T18:41:38.276Z,0
2019-01-10T18:42:39.730Z,0
2019-01-10T18:43:41.163Z,0
2019-01-10T18:44:43.494Z,0
2019-01-10T18:45:44.910Z,0
2019-01-10T18:46:46.282Z,0
2019-01-10T18:47:48.506Z,0
2019-01-10T18:48:50.547Z,0
2019-01-10T18:49:51.929Z,0
2019-01-10T18:50:53.339Z,0
2019-01-10T18:51:55.694Z,0
2019-01-10T18:52:56.638Z,0
2019-01-10T18:53:58.010Z,0
2019-01-10T18:55:00.267Z,0
2019-01-10T18:56:00.722Z,0
2019-01-10T18:57:02.101Z,0
2019-01-10T18:58:03.485Z,0
2019-01-10T18:59:04.859Z,0
2019-01-10T19:00:06.236Z,0
2019-01-10T19:01:07.622Z,0
2019-01-10T19:02:09.898Z,0
2019-01-10T19:03:11.284Z,0
2019-01-10T19:04:12.688Z,0
2019-01-10T19:05:14.063Z,0
2019-01-10T19:06:15.443Z,0
2019-01-10T19:07:16.894Z,0
2019-01-10T19:08:18.281Z,0
2019-01-10T19:09:19.652Z,0
2019-01-10T19:10:21.056Z,0
2019-01-10T19:11:22.473Z,0
2019-01-10T19:12:23.816Z,0
2019-01-10T19:13:25.170Z,0
2019-01-10T19:14:26.542Z,0
2019-01-10T19:15:27.927Z,0
2019-01-10T19:16:29.331Z,0
2019-01-10T19:17:30.705Z,0
2019-01-10T19:18:32.073Z,0
2019-01-10T19:19:33.468Z,24
2019-01-10T19:20:34.939Z,32
2019-01-10T19:21:36.366Z,36
2019-01-10T19:22:39.667Z,36
2019-01-10T19:23:41.198Z,36
2019-01-10T19:24:43.122Z,36
2019-01-10T19:25:47.222Z,36
2019-01-10T19:26:50.349Z,36
2019-01-10T19:27:53.602Z,36
2019-01-10T19:28:54.016Z,36
2019-01-10T19:29:55.445Z,40
2019-01-10T19:30:57.242Z,36
2019-01-10T19:31:58.805Z,36
2019-01-10T19:33:01.292Z,40
2019-01-10T19:34:02.170Z,40
2019-01-10T19:35:03.538Z,40
2019-01-10T19:36:04.909Z,36
2019-01-10T19:37:06.287Z,40
2019-01-10T19:38:07.757Z,0
2019-01-10T19:39:08.994Z,0
2019-01-10T19:40:10.364Z,0
2019-01-10T19:41:13.083Z,0
2019-01-10T19:42:15.161Z,0
2019-01-10T19:43:16.537Z,0
2019-01-10T19:44:17.903Z,0
2019-01-10T19:45:19.271Z,0
2019-01-10T19:46:20.656Z,0
2019-01-10T19:47:22.028Z,0
2019-01-10T19:48:23.403Z,0
2019-01-10T19:49:24.788Z,0
2019-01-10T19:50:26.162Z,0
2019-01-10T19:51:27.538Z,0
2019-01-10T19:52:28.938Z,0
2019-01-10T19:53:30.309Z,0
2019-01-10T19:54:31.681Z,0
2019-01-10T19:55:33.066Z,0
2019-01-10T19:56:34.425Z,0
2019-01-10T19:57:35.801Z,0
2019-01-10T19:58:37.174Z,0
2019-01-10T19:59:38.548Z,0
2019-01-10T20:00:40.725Z,0
2019-01-10T20:01:42.107Z,0
2019-01-10T20:02:43.474Z,0
2019-01-10T20:03:44.844Z,0
2019-01-10T20:04:46.253Z,0
2019-01-10T20:05:47.646Z,0
2019-01-10T20:06:49.019Z,0
2019-01-10T20:07:50.405Z,0
2019-01-10T20:08:52.526Z,0
2019-01-10T20:09:53.893Z,0
2019-01-10T20:10:55.272Z,0
2019-01-10T20:11:56.643Z,0
2019-01-10T20:12:58.009Z,0
2019-01-10T20:14:00.648Z,0
2019-01-10T20:15:02.829Z,0
2019-01-10T20:16:07.153Z,0
2019-01-10T20:17:09.673Z,0
2019-01-10T20:18:16.615Z,0
2019-01-10T20:19:21.049Z,0
2019-01-10T20:20:22.445Z,0
2019-01-10T20:21:25.693Z,0
2019-01-10T20:22:28.940Z,0
2019-01-10T20:23:31.855Z,0
2019-01-10T20:24:33.666Z,0
2019-01-10T20:25:36.424Z,0
2019-01-10T20:26:38.499Z,0
2019-01-10T20:27:39.879Z,0
2019-01-10T20:28:45.038Z,0
2019-01-10T20:29:46.412Z,0
2019-01-10T20:30:47.801Z,0
2019-01-10T20:31:49.167Z,0
2019-01-10T20:32:50.539Z,0
2019-01-10T20:33:52.956Z,0
2019-01-10T20:34:54.330Z,0
2019-01-10T20:35:57.074Z,0
2019-01-10T20:36:58.438Z,0
2019-01-10T20:37:59.801Z,0
2019-01-10T20:39:01.178Z,0
2019-01-10T20:40:02.559Z,0
2019-01-10T20:41:03.918Z,0
2019-01-10T20:42:05.296Z,0
2019-01-10T20:43:06.672Z,0
2019-01-10T20:44:08.031Z,0
2019-01-10T20:45:09.413Z,0
2019-01-10T20:46:10.781Z,0
2019-01-10T20:47:12.170Z,0
2019-01-10T20:48:13.532Z,0
2019-01-10T20:49:14.909Z,0
2019-01-10T20:50:16.292Z,0
2019-01-10T20:51:17.654Z,0
2019-01-10T20:52:22.686Z,0
2019-01-10T20:53:24.061Z,0
2019-01-10T20:54:26.032Z,0
2019-01-10T20:55:27.403Z,0
2019-01-10T20:56:30.331Z,0
2019-01-10T20:58:34.714Z,0
2019-01-10T20:59:36.092Z,0
2019-01-10T21:00:39.315Z,0
2019-01-10T21:01:40.681Z,0
2019-01-10T21:02:42.068Z,0
2019-01-10T21:03:45.754Z,0
2019-01-10T21:04:48.704Z,0
2019-01-10T21:05:52.736Z,0
2019-01-10T21:06:56.763Z,0
2019-01-10T21:07:59.147Z,0
2019-01-10T21:09:02.641Z,0
2019-01-10T21:10:07.057Z,0
2019-01-10T21:11:12.616Z,0
2019-01-10T21:12:14.006Z,0
2019-01-10T21:13:15.958Z,0
2019-01-10T21:14:18.033Z,0
2019-01-10T21:15:18.737Z,0
2019-01-10T21:16:20.112Z,0
2019-01-10T21:17:22.871Z,0
2019-01-10T21:18:28.649Z,0
2019-01-10T21:19:25.574Z,0
2019-01-10T21:20:26.963Z,0
2019-01-10T21:21:28.337Z,0
2019-01-10T21:22:29.720Z,0
2019-01-10T21:23:31.222Z,0
2019-01-10T21:24:33.371Z,0
2019-01-10T21:25:35.459Z,0
2019-01-10T21:26:36.836Z,0
2019-01-10T21:27:38.202Z,0
2019-01-10T21:28:39.578Z,0
2019-01-10T21:29:40.961Z,0
2019-01-10T21:30:42.363Z,0
2019-01-10T21:31:43.749Z,0
2019-01-10T21:32:45.133Z,0
2019-01-10T21:33:46.507Z,0
2019-01-10T21:34:47.889Z,0
2019-01-10T21:35:49.272Z,0
2019-01-10T21:36:50.651Z,0
2019-01-10T21:37:52.069Z,0
2019-01-10T21:38:53.472Z,0
2019-01-10T21:39:54.842Z,0
2019-01-10T21:40:56.214Z,0
2019-01-10T21:41:57.593Z,0
2019-01-10T21:42:58.955Z,0
2019-01-10T21:44:00.361Z,0
2019-01-10T21:45:01.736Z,0
2019-01-10T21:46:03.103Z,0
2019-01-10T21:47:06.545Z,0
2019-01-10T21:48:09.211Z,0
2019-01-10T21:49:13.267Z,0
2019-01-10T21:50:19.254Z,0
2019-01-10T21:51:23.173Z,0
2019-01-10T21:52:29.801Z,0
2019-01-10T21:53:34.713Z,28
2019-01-10T21:54:39.186Z,0
2019-01-10T21:55:41.848Z,0
2019-01-10T21:56:43.285Z,0
2019-01-10T21:57:45.369Z,0
2019-01-10T21:58:46.753Z,0
2019-01-10T21:59:52.564Z,0
2019-01-10T22:00:53.082Z,0
2019-01-10T22:01:56.085Z,0
2019-01-10T22:03:00.056Z,0
2019-01-10T22:04:00.541Z,0
2019-01-10T22:05:01.930Z,0
2019-01-10T22:06:03.326Z,0
2019-01-10T22:07:04.695Z,0
2019-01-10T22:08:06.077Z,0
2019-01-10T22:09:07.447Z,0
2019-01-10T22:10:08.829Z,0
2019-01-10T22:11:10.230Z,0
2019-01-10T22:12:11.611Z,0
2019-01-10T22:13:12.982Z,0
2019-01-10T22:14:14.361Z,0
2019-01-10T22:15:15.733Z,0
2019-01-10T22:16:17.114Z,0
2019-01-10T22:17:18.473Z,0
2019-01-10T22:18:19.862Z,0
2019-01-10T22:19:21.345Z,0
2019-01-10T22:20:22.726Z,0
2019-01-10T22:21:24.095Z,0
2019-01-10T22:22:25.511Z,0
2019-01-10T22:23:26.875Z,0
2019-01-10T22:24:28.257Z,0
2019-01-10T22:25:29.645Z,0
2019-01-10T22:26:31.019Z,0
2019-01-10T22:27:32.408Z,0
2019-01-10T22:28:33.793Z,0
2019-01-10T22:29:35.162Z,0
2019-01-10T22:30:36.543Z,0
2019-01-10T22:31:37.916Z,0
2019-01-10T22:32:39.296Z,0
2019-01-10T22:33:40.663Z,0
2019-01-10T22:34:42.027Z,0
2019-01-10T22:35:43.421Z,0
2019-01-10T22:36:44.782Z,0
2019-01-10T22:37:46.174Z,0
2019-01-10T22:38:47.604Z,0
2019-01-10T22:39:49.002Z,0
2019-01-10T22:40:50.370Z,0
2019-01-10T22:41:51.743Z,0
2019-01-10T22:42:53.113Z,0
2019-01-10T22:43:54.485Z,0
2019-01-10T22:44:55.854Z,0
2019-01-10T22:45:57.227Z,0
2019-01-10T22:46:58.601Z,0
2019-01-10T22:47:59.971Z,0
2019-01-10T22:49:01.338Z,0
2019-01-10T22:50:02.718Z,0
2019-01-10T22:51:04.090Z,0
2019-01-10T22:52:05.465Z,0
2019-01-10T22:53:06.838Z,0
2019-01-10T22:54:08.219Z,0
2019-01-10T22:55:09.599Z,0
2019-01-10T22:56:10.963Z,0
2019-01-10T22:57:13.137Z,0